sensor_id;sensor_type;location;lat;lon;timestamp;temperature;humidity
56861;DHT22;42744;51.094;3.490;2023-04-10T00:02:20;10.10;99.90
56861;DHT22;42744;51.094;3.490;2023-04-10T00:04:46;10.10;99.90
56861;DHT22;42744;51.094;3.490;2023-04-10T00:07:13;10.20;99.90
56861;DHT22;42744;51.094;3.490;2023-04-10T00:09:39;10.20;99.90
56861;DHT22;42744;51.094;3.490;2023-04-10T00:12:05;10.20;99.90
56861;DHT22;42744;51.094;3.490;2023-04-10T00:14:31;10.20;99.90
56861;DHT22;42744;51.094;3.490;2023-04-10T00:16:57;10.20;99.90
56861;DHT22;42744;51.094;3.490;2023-04-10T00:19:23;10.20;99.90
56861;DHT22;42744;51.094;3.490;2023-04-10T00:21:49;10.20;99.90
56861;DHT22;42744;51.094;3.490;2023-04-10T00:24:15;10.20;99.90
56861;DHT22;42744;51.094;3.490;2023-04-10T00:26:41;10.20;99.90
56861;DHT22;42744;51.094;3.490;2023-04-10T00:29:07;10.20;99.90
56861;DHT22;42744;51.094;3.490;2023-04-10T00:31:33;10.20;99.90
56861;DHT22;42744;51.094;3.490;2023-04-10T00:34:00;10.20;99.90
56861;DHT22;42744;51.094;3.490;2023-04-10T00:36:26;10.20;99.90
56861;DHT22;42744;51.094;3.490;2023-04-10T00:38:52;10.10;99.90
56861;DHT22;42744;51.094;3.490;2023-04-10T00:41:18;10.20;99.90
56861;DHT22;42744;51.094;3.490;2023-04-10T00:43:45;10.20;99.90
56861;DHT22;42744;51.094;3.490;2023-04-10T00:46:10;10.20;99.90
56861;DHT22;42744;51.094;3.490;2023-04-10T00:48:37;10.20;99.90
56861;DHT22;42744;51.094;3.490;2023-04-10T00:51:04;10.20;99.90
56861;DHT22;42744;51.094;3.490;2023-04-10T00:53:31;10.10;99.90
56861;DHT22;42744;51.094;3.490;2023-04-10T00:55:58;10.10;99.90
56861;DHT22;42744;51.094;3.490;2023-04-10T00:58:24;10.10;99.90
56861;DHT22;42744;51.094;3.490;2023-04-10T01:00:51;10.20;99.90
56861;DHT22;42744;51.094;3.490;2023-04-10T01:03:18;10.20;99.90
56861;DHT22;42744;51.094;3.490;2023-04-10T01:14:04;10.10;99.90
56861;DHT22;42744;51.094;3.490;2023-04-10T01:20:12;10.10;99.90
56861;DHT22;42744;51.094;3.490;2023-04-10T01:25:47;10.00;99.90
56861;DHT22;42744;51.094;3.490;2023-04-10T01:31:14;10.00;99.90
56861;DHT22;42744;51.094;3.490;2023-04-10T01:33:50;10.00;99.90
56861;DHT22;42744;51.094;3.490;2023-04-10T01:36:28;10.00;99.90
56861;DHT22;42744;51.094;3.490;2023-04-10T01:38:57;10.00;99.90
56861;DHT22;42744;51.094;3.490;2023-04-10T01:41:24;10.00;99.90
56861;DHT22;42744;51.094;3.490;2023-04-10T01:43:52;10.00;99.90
56861;DHT22;42744;51.094;3.490;2023-04-10T01:46:19;10.00;99.90
56861;DHT22;42744;51.094;3.490;2023-04-10T01:48:46;10.00;99.90
56861;DHT22;42744;51.094;3.490;2023-04-10T01:51:14;10.00;99.90
56861;DHT22;42744;51.094;3.490;2023-04-10T01:53:43;10.00;99.90
56861;DHT22;42744;51.094;3.490;2023-04-10T01:56:13;10.00;99.90
56861;DHT22;42744;51.094;3.490;2023-04-10T01:58:41;10.00;99.90
56861;DHT22;42744;51.094;3.490;2023-04-10T02:01:07;10.00;99.90
56861;DHT22;42744;51.094;3.490;2023-04-10T02:03:34;10.00;99.90
56861;DHT22;42744;51.094;3.490;2023-04-10T02:06:09;10.00;99.90
56861;DHT22;42744;51.094;3.490;2023-04-10T02:08:42;10.00;99.90
56861;DHT22;42744;51.094;3.490;2023-04-10T02:14:04;10.00;99.90
56861;DHT22;42744;51.094;3.490;2023-04-10T02:16:32;9.90;99.90
56861;DHT22;42744;51.094;3.490;2023-04-10T02:18:58;9.90;99.90
56861;DHT22;42744;51.094;3.490;2023-04-10T02:21:26;9.90;99.90
56861;DHT22;42744;51.094;3.490;2023-04-10T02:23:52;9.90;99.90
56861;DHT22;42744;51.094;3.490;2023-04-10T02:26:18;10.00;99.90
56861;DHT22;42744;51.094;3.490;2023-04-10T02:28:46;9.90;99.90
56861;DHT22;42744;51.094;3.490;2023-04-10T02:31:12;9.90;99.90
56861;DHT22;42744;51.094;3.490;2023-04-10T02:33:38;9.90;99.90
56861;DHT22;42744;51.094;3.490;2023-04-10T02:36:05;9.90;99.90
56861;DHT22;42744;51.094;3.490;2023-04-10T02:38:31;9.90;99.90
56861;DHT22;42744;51.094;3.490;2023-04-10T02:40:57;9.90;99.90
56861;DHT22;42744;51.094;3.490;2023-04-10T02:43:25;9.90;99.90
56861;DHT22;42744;51.094;3.490;2023-04-10T02:45:51;9.90;99.90
56861;DHT22;42744;51.094;3.490;2023-04-10T02:48:17;9.90;99.90
56861;DHT22;42744;51.094;3.490;2023-04-10T02:50:46;9.90;99.90
56861;DHT22;42744;51.094;3.490;2023-04-10T02:53:15;9.90;99.90
56861;DHT22;42744;51.094;3.490;2023-04-10T02:55:41;10.00;99.90
56861;DHT22;42744;51.094;3.490;2023-04-10T02:58:08;10.00;99.90
56861;DHT22;42744;51.094;3.490;2023-04-10T03:00:34;10.00;99.90
56861;DHT22;42744;51.094;3.490;2023-04-10T03:03:02;10.00;99.90
56861;DHT22;42744;51.094;3.490;2023-04-10T03:05:29;10.00;99.90
56861;DHT22;42744;51.094;3.490;2023-04-10T03:07:55;10.00;99.90
56861;DHT22;42744;51.094;3.490;2023-04-10T03:10:21;10.00;99.90
56861;DHT22;42744;51.094;3.490;2023-04-10T03:12:47;10.00;99.90
56861;DHT22;42744;51.094;3.490;2023-04-10T03:15:13;10.00;99.90
56861;DHT22;42744;51.094;3.490;2023-04-10T03:17:39;10.10;99.90
56861;DHT22;42744;51.094;3.490;2023-04-10T03:20:06;10.00;99.90
56861;DHT22;42744;51.094;3.490;2023-04-10T03:22:33;10.00;99.90
56861;DHT22;42744;51.094;3.490;2023-04-10T03:24:59;10.00;99.90
56861;DHT22;42744;51.094;3.490;2023-04-10T03:27:28;10.00;99.90
56861;DHT22;42744;51.094;3.490;2023-04-10T03:29:56;10.00;99.90
56861;DHT22;42744;51.094;3.490;2023-04-10T03:32:23;10.00;99.90
56861;DHT22;42744;51.094;3.490;2023-04-10T03:34:49;10.00;99.90
56861;DHT22;42744;51.094;3.490;2023-04-10T03:37:15;10.00;99.90
56861;DHT22;42744;51.094;3.490;2023-04-10T03:39:41;10.00;99.90
56861;DHT22;42744;51.094;3.490;2023-04-10T03:42:09;10.00;99.90
56861;DHT22;42744;51.094;3.490;2023-04-10T03:44:36;10.00;99.90
56861;DHT22;42744;51.094;3.490;2023-04-10T03:47:02;10.00;99.90
56861;DHT22;42744;51.094;3.490;2023-04-10T03:49:29;10.00;99.90
56861;DHT22;42744;51.094;3.490;2023-04-10T03:52:00;10.00;99.90
56861;DHT22;42744;51.094;3.490;2023-04-10T03:54:27;10.00;99.90
56861;DHT22;42744;51.094;3.490;2023-04-10T03:56:54;10.10;99.90
56861;DHT22;42744;51.094;3.490;2023-04-10T03:59:21;10.00;99.90
56861;DHT22;42744;51.094;3.490;2023-04-10T04:01:47;10.10;99.90
56861;DHT22;42744;51.094;3.490;2023-04-10T04:04:13;10.10;99.90
56861;DHT22;42744;51.094;3.490;2023-04-10T04:06:42;10.10;99.90
56861;DHT22;42744;51.094;3.490;2023-04-10T04:09:09;10.00;99.90
56861;DHT22;42744;51.094;3.490;2023-04-10T04:11:35;10.00;99.90
56861;DHT22;42744;51.094;3.490;2023-04-10T04:14:03;10.00;99.90
56861;DHT22;42744;51.094;3.490;2023-04-10T04:16:30;10.00;99.90
56861;DHT22;42744;51.094;3.490;2023-04-10T04:18:58;10.00;99.90
56861;DHT22;42744;51.094;3.490;2023-04-10T04:21:24;10.00;99.90
56861;DHT22;42744;51.094;3.490;2023-04-10T04:23:51;10.00;99.90
56861;DHT22;42744;51.094;3.490;2023-04-10T04:26:20;10.00;99.90
56861;DHT22;42744;51.094;3.490;2023-04-10T04:28:47;10.10;99.90
56861;DHT22;42744;51.094;3.490;2023-04-10T04:31:13;10.00;99.90
56861;DHT22;42744;51.094;3.490;2023-04-10T04:33:39;10.00;99.90
56861;DHT22;42744;51.094;3.490;2023-04-10T04:36:06;10.00;99.90
56861;DHT22;42744;51.094;3.490;2023-04-10T04:38:33;10.00;99.90
56861;DHT22;42744;51.094;3.490;2023-04-10T04:40:59;10.00;99.90
56861;DHT22;42744;51.094;3.490;2023-04-10T04:43:26;10.00;99.90
56861;DHT22;42744;51.094;3.490;2023-04-10T04:45:53;10.00;99.90
56861;DHT22;42744;51.094;3.490;2023-04-10T04:48:24;10.00;99.90
56861;DHT22;42744;51.094;3.490;2023-04-10T04:50:50;10.00;99.90
56861;DHT22;42744;51.094;3.490;2023-04-10T04:53:16;9.90;99.90
56861;DHT22;42744;51.094;3.490;2023-04-10T04:55:43;10.00;99.90
56861;DHT22;42744;51.094;3.490;2023-04-10T04:58:13;9.90;99.90
56861;DHT22;42744;51.094;3.490;2023-04-10T05:00:39;9.90;99.90
56861;DHT22;42744;51.094;3.490;2023-04-10T05:03:05;9.90;99.90
56861;DHT22;42744;51.094;3.490;2023-04-10T05:05:31;10.00;99.90
56861;DHT22;42744;51.094;3.490;2023-04-10T05:07:58;10.00;99.90
56861;DHT22;42744;51.094;3.490;2023-04-10T05:10:24;10.00;99.90
56861;DHT22;42744;51.094;3.490;2023-04-10T05:12:57;10.00;99.90
56861;DHT22;42744;51.094;3.490;2023-04-10T05:15:23;10.00;99.90
56861;DHT22;42744;51.094;3.490;2023-04-10T05:17:49;10.00;99.90
56861;DHT22;42744;51.094;3.490;2023-04-10T05:20:18;9.90;99.90
56861;DHT22;42744;51.094;3.490;2023-04-10T05:22:45;9.90;99.90
56861;DHT22;42744;51.094;3.490;2023-04-10T05:25:12;9.90;99.90
56861;DHT22;42744;51.094;3.490;2023-04-10T05:27:38;9.90;99.90
56861;DHT22;42744;51.094;3.490;2023-04-10T05:30:04;9.80;99.90
56861;DHT22;42744;51.094;3.490;2023-04-10T05:32:34;9.80;99.90
56861;DHT22;42744;51.094;3.490;2023-04-10T05:35:01;9.80;99.90
56861;DHT22;42744;51.094;3.490;2023-04-10T05:37:27;9.70;99.90
56861;DHT22;42744;51.094;3.490;2023-04-10T05:39:53;9.70;99.90
56861;DHT22;42744;51.094;3.490;2023-04-10T05:42:19;9.70;99.90
56861;DHT22;42744;51.094;3.490;2023-04-10T05:44:46;9.70;99.90
56861;DHT22;42744;51.094;3.490;2023-04-10T05:47:14;9.70;99.90
56861;DHT22;42744;51.094;3.490;2023-04-10T05:49:41;9.70;99.90
56861;DHT22;42744;51.094;3.490;2023-04-10T05:52:07;9.70;99.90
56861;DHT22;42744;51.094;3.490;2023-04-10T05:54:34;9.60;99.90
56861;DHT22;42744;51.094;3.490;2023-04-10T05:57:01;9.60;99.90
56861;DHT22;42744;51.094;3.490;2023-04-10T05:59:28;9.60;99.90
56861;DHT22;42744;51.094;3.490;2023-04-10T06:01:56;9.60;99.90
56861;DHT22;42744;51.094;3.490;2023-04-10T06:04:23;9.60;99.90
56861;DHT22;42744;51.094;3.490;2023-04-10T06:06:50;9.60;99.90
56861;DHT22;42744;51.094;3.490;2023-04-10T06:09:16;9.60;99.90
56861;DHT22;42744;51.094;3.490;2023-04-10T06:11:42;9.70;99.90
56861;DHT22;42744;51.094;3.490;2023-04-10T06:14:08;9.70;99.90
56861;DHT22;42744;51.094;3.490;2023-04-10T06:16:34;9.70;99.90
56861;DHT22;42744;51.094;3.490;2023-04-10T06:19:01;9.70;99.90
56861;DHT22;42744;51.094;3.490;2023-04-10T06:21:28;9.70;99.90
56861;DHT22;42744;51.094;3.490;2023-04-10T06:23:54;9.70;99.90
56861;DHT22;42744;51.094;3.490;2023-04-10T06:26:21;9.70;99.90
56861;DHT22;42744;51.094;3.490;2023-04-10T06:28:47;9.80;99.90
56861;DHT22;42744;51.094;3.490;2023-04-10T06:31:13;9.80;99.90
56861;DHT22;42744;51.094;3.490;2023-04-10T06:33:40;9.80;99.90
56861;DHT22;42744;51.094;3.490;2023-04-10T06:36:06;9.90;99.90
56861;DHT22;42744;51.094;3.490;2023-04-10T06:38:34;9.90;99.90
56861;DHT22;42744;51.094;3.490;2023-04-10T06:41:04;9.90;99.90
56861;DHT22;42744;51.094;3.490;2023-04-10T06:43:33;9.90;99.90
56861;DHT22;42744;51.094;3.490;2023-04-10T06:45:59;10.00;99.90
56861;DHT22;42744;51.094;3.490;2023-04-10T06:48:25;10.00;99.90
56861;DHT22;42744;51.094;3.490;2023-04-10T06:50:51;10.00;99.90
56861;DHT22;42744;51.094;3.490;2023-04-10T06:53:17;10.10;99.90
56861;DHT22;42744;51.094;3.490;2023-04-10T06:55:43;10.10;99.90
56861;DHT22;42744;51.094;3.490;2023-04-10T06:58:09;10.20;99.90
56861;DHT22;42744;51.094;3.490;2023-04-10T07:00:35;10.20;99.90
56861;DHT22;42744;51.094;3.490;2023-04-10T07:03:01;10.20;99.90
56861;DHT22;42744;51.094;3.490;2023-04-10T07:05:27;10.20;99.90
56861;DHT22;42744;51.094;3.490;2023-04-10T07:07:53;10.30;99.90
56861;DHT22;42744;51.094;3.490;2023-04-10T07:10:19;10.30;99.90
56861;DHT22;42744;51.094;3.490;2023-04-10T07:12:45;10.30;99.90
56861;DHT22;42744;51.094;3.490;2023-04-10T07:15:11;10.40;99.90
56861;DHT22;42744;51.094;3.490;2023-04-10T07:17:38;10.40;99.90
56861;DHT22;42744;51.094;3.490;2023-04-10T07:20:04;10.40;99.90
56861;DHT22;42744;51.094;3.490;2023-04-10T07:22:30;10.50;99.90
56861;DHT22;42744;51.094;3.490;2023-04-10T07:24:57;10.50;99.90
56861;DHT22;42744;51.094;3.490;2023-04-10T07:27:23;10.60;99.90
56861;DHT22;42744;51.094;3.490;2023-04-10T07:29:52;10.70;99.90
56861;DHT22;42744;51.094;3.490;2023-04-10T07:32:18;10.80;99.90
56861;DHT22;42744;51.094;3.490;2023-04-10T07:34:44;10.80;99.90
56861;DHT22;42744;51.094;3.490;2023-04-10T07:37:10;10.90;99.90
56861;DHT22;42744;51.094;3.490;2023-04-10T07:39:36;11.00;99.90
56861;DHT22;42744;51.094;3.490;2023-04-10T07:42:02;11.10;99.90
56861;DHT22;42744;51.094;3.490;2023-04-10T07:44:28;11.10;99.90
56861;DHT22;42744;51.094;3.490;2023-04-10T07:46:54;11.20;99.90
56861;DHT22;42744;51.094;3.490;2023-04-10T07:49:21;11.30;99.90
56861;DHT22;42744;51.094;3.490;2023-04-10T07:51:47;11.30;99.90
56861;DHT22;42744;51.094;3.490;2023-04-10T07:54:13;11.30;99.90
56861;DHT22;42744;51.094;3.490;2023-04-10T07:56:39;11.40;99.90
56861;DHT22;42744;51.094;3.490;2023-04-10T07:59:05;11.50;99.90
56861;DHT22;42744;51.094;3.490;2023-04-10T08:01:32;11.50;99.90
56861;DHT22;42744;51.094;3.490;2023-04-10T08:03:58;11.60;99.90
56861;DHT22;42744;51.094;3.490;2023-04-10T08:06:25;11.60;99.90
56861;DHT22;42744;51.094;3.490;2023-04-10T08:08:51;11.70;99.90
56861;DHT22;42744;51.094;3.490;2023-04-10T08:11:29;11.70;99.90
56861;DHT22;42744;51.094;3.490;2023-04-10T08:13:57;11.80;99.90
56861;DHT22;42744;51.094;3.490;2023-04-10T08:16:27;11.90;99.90
56861;DHT22;42744;51.094;3.490;2023-04-10T08:18:54;12.00;99.90
56861;DHT22;42744;51.094;3.490;2023-04-10T08:21:23;12.20;99.90
56861;DHT22;42744;51.094;3.490;2023-04-10T08:23:52;12.30;99.90
56861;DHT22;42744;51.094;3.490;2023-04-10T08:26:18;12.40;99.90
56861;DHT22;42744;51.094;3.490;2023-04-10T08:28:47;12.50;99.90
56861;DHT22;42744;51.094;3.490;2023-04-10T08:31:22;12.50;99.90
56861;DHT22;42744;51.094;3.490;2023-04-10T08:33:48;12.50;99.90
56861;DHT22;42744;51.094;3.490;2023-04-10T08:36:14;12.50;99.90
56861;DHT22;42744;51.094;3.490;2023-04-10T08:38:42;12.60;99.90
56861;DHT22;42744;51.094;3.490;2023-04-10T08:41:17;12.60;99.90
56861;DHT22;42744;51.094;3.490;2023-04-10T08:43:44;12.70;99.90
56861;DHT22;42744;51.094;3.490;2023-04-10T08:46:11;12.80;99.90
56861;DHT22;42744;51.094;3.490;2023-04-10T08:48:45;12.80;99.90
56861;DHT22;42744;51.094;3.490;2023-04-10T08:51:18;12.90;99.90
56861;DHT22;42744;51.094;3.490;2023-04-10T08:53:49;13.00;99.90
56861;DHT22;42744;51.094;3.490;2023-04-10T08:56:17;13.20;99.90
56861;DHT22;42744;51.094;3.490;2023-04-10T08:58:43;13.40;99.90
56861;DHT22;42744;51.094;3.490;2023-04-10T09:01:10;13.50;99.90
56861;DHT22;42744;51.094;3.490;2023-04-10T09:03:37;13.60;99.90
56861;DHT22;42744;51.094;3.490;2023-04-10T09:06:03;13.60;99.90
56861;DHT22;42744;51.094;3.490;2023-04-10T09:08:30;13.70;99.90
56861;DHT22;42744;51.094;3.490;2023-04-10T09:10:57;13.80;99.90
56861;DHT22;42744;51.094;3.490;2023-04-10T09:13:37;13.80;99.90
56861;DHT22;42744;51.094;3.490;2023-04-10T09:16:04;13.90;99.90
56861;DHT22;42744;51.094;3.490;2023-04-10T09:18:41;14.00;99.90
56861;DHT22;42744;51.094;3.490;2023-04-10T09:21:12;14.00;99.90
56861;DHT22;42744;51.094;3.490;2023-04-10T09:23:41;14.20;99.90
56861;DHT22;42744;51.094;3.490;2023-04-10T09:26:30;14.40;99.90
56861;DHT22;42744;51.094;3.490;2023-04-10T09:28:59;14.70;99.90
56861;DHT22;42744;51.094;3.490;2023-04-10T09:34:19;14.80;99.90
56861;DHT22;42744;51.094;3.490;2023-04-10T09:39:20;14.90;99.90
56861;DHT22;42744;51.094;3.490;2023-04-10T09:41:54;15.10;99.90
56861;DHT22;42744;51.094;3.490;2023-04-10T09:44:31;15.20;99.90
56861;DHT22;42744;51.094;3.490;2023-04-10T09:47:16;15.20;99.90
56861;DHT22;42744;51.094;3.490;2023-04-10T09:49:46;15.20;99.90
56861;DHT22;42744;51.094;3.490;2023-04-10T09:54:46;15.20;99.90
56861;DHT22;42744;51.094;3.490;2023-04-10T09:57:17;15.30;99.90
56861;DHT22;42744;51.094;3.490;2023-04-10T09:59:49;15.30;99.90
56861;DHT22;42744;51.094;3.490;2023-04-10T10:02:20;15.30;99.90
56861;DHT22;42744;51.094;3.490;2023-04-10T10:04:47;15.20;99.90
56861;DHT22;42744;51.094;3.490;2023-04-10T10:07:15;15.20;99.90
56861;DHT22;42744;51.094;3.490;2023-04-10T10:09:42;15.20;99.90
56861;DHT22;42744;51.094;3.490;2023-04-10T10:12:11;15.20;99.90
56861;DHT22;42744;51.094;3.490;2023-04-10T10:17:38;15.20;99.90
56861;DHT22;42744;51.094;3.490;2023-04-10T10:20:09;15.30;99.90
56861;DHT22;42744;51.094;3.490;2023-04-10T10:22:36;15.40;99.90
56861;DHT22;42744;51.094;3.490;2023-04-10T10:25:03;15.40;99.90
56861;DHT22;42744;51.094;3.490;2023-04-10T10:27:36;15.50;99.90
56861;DHT22;42744;51.094;3.490;2023-04-10T10:30:02;15.50;99.90
56861;DHT22;42744;51.094;3.490;2023-04-10T10:32:29;15.40;99.90
56861;DHT22;42744;51.094;3.490;2023-04-10T10:34:56;15.30;99.90
56861;DHT22;42744;51.094;3.490;2023-04-10T10:37:23;15.20;99.90
56861;DHT22;42744;51.094;3.490;2023-04-10T10:42:41;15.20;99.90
56861;DHT22;42744;51.094;3.490;2023-04-10T10:45:12;15.20;99.90
56861;DHT22;42744;51.094;3.490;2023-04-10T10:48:08;15.30;99.90
56861;DHT22;42744;51.094;3.490;2023-04-10T10:58:46;15.30;99.90
56861;DHT22;42744;51.094;3.490;2023-04-10T11:01:14;15.20;99.90
56861;DHT22;42744;51.094;3.490;2023-04-10T11:03:40;15.10;99.90
56861;DHT22;42744;51.094;3.490;2023-04-10T11:06:08;14.90;99.90
56861;DHT22;42744;51.094;3.490;2023-04-10T11:08:51;14.70;99.90
56861;DHT22;42744;51.094;3.490;2023-04-10T11:11:26;14.40;99.90
56861;DHT22;42744;51.094;3.490;2023-04-10T11:16:23;14.20;99.90
56861;DHT22;42744;51.094;3.490;2023-04-10T11:21:20;14.00;99.90
56861;DHT22;42744;51.094;3.490;2023-04-10T11:26:39;13.80;99.90
56861;DHT22;42744;51.094;3.490;2023-04-10T11:34:21;13.50;99.90
56861;DHT22;42744;51.094;3.490;2023-04-10T11:43:34;13.60;99.90
56861;DHT22;42744;51.094;3.490;2023-04-10T11:46:02;13.50;99.90
56861;DHT22;42744;51.094;3.490;2023-04-10T11:48:29;13.50;99.90
56861;DHT22;42744;51.094;3.490;2023-04-10T11:50:55;13.40;99.90
56861;DHT22;42744;51.094;3.490;2023-04-10T11:53:22;13.40;99.90
56861;DHT22;42744;51.094;3.490;2023-04-10T11:55:48;13.40;99.90
56861;DHT22;42744;51.094;3.490;2023-04-10T11:58:28;13.30;99.90
56861;DHT22;42744;51.094;3.490;2023-04-10T12:00:57;13.30;99.90
56861;DHT22;42744;51.094;3.490;2023-04-10T12:03:42;13.20;99.90
56861;DHT22;42744;51.094;3.490;2023-04-10T12:06:13;13.10;99.90
56861;DHT22;42744;51.094;3.490;2023-04-10T12:08:44;13.10;99.90
56861;DHT22;42744;51.094;3.490;2023-04-10T12:11:12;13.10;99.90
56861;DHT22;42744;51.094;3.490;2023-04-10T12:13:39;13.10;99.90
56861;DHT22;42744;51.094;3.490;2023-04-10T12:16:06;13.10;99.90
56861;DHT22;42744;51.094;3.490;2023-04-10T12:18:33;13.10;99.90
56861;DHT22;42744;51.094;3.490;2023-04-10T12:21:00;13.20;99.90
56861;DHT22;42744;51.094;3.490;2023-04-10T12:23:27;13.20;99.90
56861;DHT22;42744;51.094;3.490;2023-04-10T12:26:12;13.30;99.90
56861;DHT22;42744;51.094;3.490;2023-04-10T12:28:40;13.30;99.90
56861;DHT22;42744;51.094;3.490;2023-04-10T12:31:07;13.40;99.90
56861;DHT22;42744;51.094;3.490;2023-04-10T12:33:33;13.50;99.90
56861;DHT22;42744;51.094;3.490;2023-04-10T12:36:00;13.50;99.90
56861;DHT22;42744;51.094;3.490;2023-04-10T12:38:40;13.50;99.90
56861;DHT22;42744;51.094;3.490;2023-04-10T12:41:08;13.50;99.90
56861;DHT22;42744;51.094;3.490;2023-04-10T12:43:40;13.50;99.90
56861;DHT22;42744;51.094;3.490;2023-04-10T12:46:08;13.60;99.90
56861;DHT22;42744;51.094;3.490;2023-04-10T12:48:35;13.70;99.90
56861;DHT22;42744;51.094;3.490;2023-04-10T12:51:01;13.70;99.90
56861;DHT22;42744;51.094;3.490;2023-04-10T12:53:27;13.70;99.90
56861;DHT22;42744;51.094;3.490;2023-04-10T12:56:03;13.80;99.90
56861;DHT22;42744;51.094;3.490;2023-04-10T12:58:30;13.90;99.90
56861;DHT22;42744;51.094;3.490;2023-04-10T13:00:58;13.90;99.90
56861;DHT22;42744;51.094;3.490;2023-04-10T13:03:27;14.00;99.90
56861;DHT22;42744;51.094;3.490;2023-04-10T13:05:53;14.00;99.90
56861;DHT22;42744;51.094;3.490;2023-04-10T13:08:20;14.00;99.90
56861;DHT22;42744;51.094;3.490;2023-04-10T13:10:47;14.00;99.90
56861;DHT22;42744;51.094;3.490;2023-04-10T13:13:14;14.00;99.90
56861;DHT22;42744;51.094;3.490;2023-04-10T13:15:41;14.10;99.90
56861;DHT22;42744;51.094;3.490;2023-04-10T13:18:07;14.10;99.90
56861;DHT22;42744;51.094;3.490;2023-04-10T13:20:36;14.10;99.90
56861;DHT22;42744;51.094;3.490;2023-04-10T13:23:02;14.10;99.90
56861;DHT22;42744;51.094;3.490;2023-04-10T13:25:33;14.10;99.90
56861;DHT22;42744;51.094;3.490;2023-04-10T13:28:01;14.20;99.90
56861;DHT22;42744;51.094;3.490;2023-04-10T13:30:27;14.20;99.90
56861;DHT22;42744;51.094;3.490;2023-04-10T13:32:53;14.20;99.90
56861;DHT22;42744;51.094;3.490;2023-04-10T13:35:20;14.10;99.90
56861;DHT22;42744;51.094;3.490;2023-04-10T13:37:48;14.20;99.90
56861;DHT22;42744;51.094;3.490;2023-04-10T13:40:17;14.10;99.90
56861;DHT22;42744;51.094;3.490;2023-04-10T13:42:43;14.00;99.90
56861;DHT22;42744;51.094;3.490;2023-04-10T13:45:10;13.90;99.90
56861;DHT22;42744;51.094;3.490;2023-04-10T13:47:36;13.70;99.90
56861;DHT22;42744;51.094;3.490;2023-04-10T13:50:02;13.50;99.90
56861;DHT22;42744;51.094;3.490;2023-04-10T13:52:28;13.20;99.90
56861;DHT22;42744;51.094;3.490;2023-04-10T13:54:54;13.00;99.90
56861;DHT22;42744;51.094;3.490;2023-04-10T13:57:20;12.90;99.90
56861;DHT22;42744;51.094;3.490;2023-04-10T13:59:46;12.90;99.90
56861;DHT22;42744;51.094;3.490;2023-04-10T14:02:12;12.90;99.90
56861;DHT22;42744;51.094;3.490;2023-04-10T14:04:38;12.90;99.90
56861;DHT22;42744;51.094;3.490;2023-04-10T14:07:04;12.90;99.90
56861;DHT22;42744;51.094;3.490;2023-04-10T14:09:30;12.80;99.90
56861;DHT22;42744;51.094;3.490;2023-04-10T14:11:56;12.80;99.90
56861;DHT22;42744;51.094;3.490;2023-04-10T14:14:22;12.80;99.90
56861;DHT22;42744;51.094;3.490;2023-04-10T14:16:48;12.70;99.90
56861;DHT22;42744;51.094;3.490;2023-04-10T14:19:15;12.60;99.90
56861;DHT22;42744;51.094;3.490;2023-04-10T14:21:42;12.60;99.90
56861;DHT22;42744;51.094;3.490;2023-04-10T14:24:09;12.60;99.90
56861;DHT22;42744;51.094;3.490;2023-04-10T14:26:35;12.60;99.90
56861;DHT22;42744;51.094;3.490;2023-04-10T14:29:01;12.60;99.90
56861;DHT22;42744;51.094;3.490;2023-04-10T14:31:27;12.60;99.90
56861;DHT22;42744;51.094;3.490;2023-04-10T14:33:54;12.60;99.90
56861;DHT22;42744;51.094;3.490;2023-04-10T14:36:20;12.50;99.90
56861;DHT22;42744;51.094;3.490;2023-04-10T14:38:46;12.50;99.90
56861;DHT22;42744;51.094;3.490;2023-04-10T14:41:12;12.50;99.90
56861;DHT22;42744;51.094;3.490;2023-04-10T14:43:38;12.50;99.90
56861;DHT22;42744;51.094;3.490;2023-04-10T14:46:04;12.60;99.90
56861;DHT22;42744;51.094;3.490;2023-04-10T14:48:30;12.60;99.90
56861;DHT22;42744;51.094;3.490;2023-04-10T14:50:56;12.60;99.90
56861;DHT22;42744;51.094;3.490;2023-04-10T14:53:23;12.60;99.90
56861;DHT22;42744;51.094;3.490;2023-04-10T14:55:50;12.60;99.90
56861;DHT22;42744;51.094;3.490;2023-04-10T14:58:15;12.60;99.90
56861;DHT22;42744;51.094;3.490;2023-04-10T15:00:42;12.60;99.90
56861;DHT22;42744;51.094;3.490;2023-04-10T15:03:08;12.60;99.90
56861;DHT22;42744;51.094;3.490;2023-04-10T15:05:34;12.50;99.90
56861;DHT22;42744;51.094;3.490;2023-04-10T15:08:00;12.50;99.90
56861;DHT22;42744;51.094;3.490;2023-04-10T15:10:29;12.50;99.90
56861;DHT22;42744;51.094;3.490;2023-04-10T15:12:55;12.40;99.90
56861;DHT22;42744;51.094;3.490;2023-04-10T15:15:21;12.40;99.90
56861;DHT22;42744;51.094;3.490;2023-04-10T15:17:48;12.40;99.90
56861;DHT22;42744;51.094;3.490;2023-04-10T15:20:14;12.40;99.90
56861;DHT22;42744;51.094;3.490;2023-04-10T15:22:40;12.40;99.90
56861;DHT22;42744;51.094;3.490;2023-04-10T15:25:08;12.40;99.90
56861;DHT22;42744;51.094;3.490;2023-04-10T15:35:01;12.30;99.90
56861;DHT22;42744;51.094;3.490;2023-04-10T15:37:28;12.30;99.90
56861;DHT22;42744;51.094;3.490;2023-04-10T15:39:55;12.20;99.90
56861;DHT22;42744;51.094;3.490;2023-04-10T15:42:21;12.30;99.90
56861;DHT22;42744;51.094;3.490;2023-04-10T15:44:47;12.30;99.90
56861;DHT22;42744;51.094;3.490;2023-04-10T15:47:13;12.30;99.90
56861;DHT22;42744;51.094;3.490;2023-04-10T15:49:39;12.30;99.90
56861;DHT22;42744;51.094;3.490;2023-04-10T15:52:05;12.30;99.90
56861;DHT22;42744;51.094;3.490;2023-04-10T15:54:34;12.30;99.90
56861;DHT22;42744;51.094;3.490;2023-04-10T15:57:00;12.30;99.90
56861;DHT22;42744;51.094;3.490;2023-04-10T15:59:27;12.30;99.90
56861;DHT22;42744;51.094;3.490;2023-04-10T16:01:52;12.30;99.90
56861;DHT22;42744;51.094;3.490;2023-04-10T16:04:19;12.30;99.90
56861;DHT22;42744;51.094;3.490;2023-04-10T16:06:45;12.30;99.90
56861;DHT22;42744;51.094;3.490;2023-04-10T16:09:11;12.30;99.90
56861;DHT22;42744;51.094;3.490;2023-04-10T16:11:37;12.30;99.90
56861;DHT22;42744;51.094;3.490;2023-04-10T16:14:03;12.30;99.90
56861;DHT22;42744;51.094;3.490;2023-04-10T16:16:29;12.30;99.90
56861;DHT22;42744;51.094;3.490;2023-04-10T16:18:56;12.30;99.90
56861;DHT22;42744;51.094;3.490;2023-04-10T16:21:22;12.20;99.90
56861;DHT22;42744;51.094;3.490;2023-04-10T16:23:48;12.20;99.90
56861;DHT22;42744;51.094;3.490;2023-04-10T16:26:15;12.20;99.90
56861;DHT22;42744;51.094;3.490;2023-04-10T16:28:43;12.10;99.90
56861;DHT22;42744;51.094;3.490;2023-04-10T16:31:09;12.10;99.90
56861;DHT22;42744;51.094;3.490;2023-04-10T16:33:35;12.00;99.90
56861;DHT22;42744;51.094;3.490;2023-04-10T16:36:01;12.00;99.90
56861;DHT22;42744;51.094;3.490;2023-04-10T16:38:30;11.90;99.90
56861;DHT22;42744;51.094;3.490;2023-04-10T16:40:56;11.90;99.90
56861;DHT22;42744;51.094;3.490;2023-04-10T16:43:23;11.90;99.90
56861;DHT22;42744;51.094;3.490;2023-04-10T16:45:58;11.90;99.90